createdAt,value
2024-02-19T00:02:01.983Z,15.95
2024-02-19T00:04:05.520Z,9.65
2024-02-19T00:06:07.812Z,14.32
2024-02-19T00:08:11.151Z,14.25
2024-02-19T00:10:13.178Z,16.25
2024-02-19T00:12:15.329Z,12.40
2024-02-19T00:14:17.299Z,12.98
2024-02-19T00:16:20.547Z,11.95
2024-02-19T00:18:23.205Z,14.00
2024-02-19T00:20:25.370Z,10.32
2024-02-19T00:22:27.357Z,18.80
2024-02-19T00:24:30.696Z,12.63
2024-02-19T00:26:32.708Z,13.95
2024-02-19T00:28:34.742Z,12.15
2024-02-19T00:30:36.790Z,14.45
2024-02-19T00:32:38.952Z,12.80
2024-02-19T00:34:43.321Z,14.57
2024-02-19T00:36:45.394Z,13.27
2024-02-19T00:38:47.637Z,13.18
2024-02-19T00:40:51.969Z,12.82
2024-02-19T00:42:53.925Z,14.00
2024-02-19T00:44:56.081Z,11.45
2024-02-19T00:46:58.058Z,13.32
2024-02-19T00:49:00.457Z,14.38
2024-02-19T00:51:04.527Z,15.05
2024-02-19T00:53:06.546Z,17.77
2024-02-19T00:55:09.190Z,14.63
2024-02-19T00:57:12.586Z,15.35
2024-02-19T00:59:14.576Z,18.02
2024-02-19T01:01:16.742Z,18.83
2024-02-19T01:03:19.134Z,21.52
2024-02-19T01:05:21.178Z,18.10
2024-02-19T01:07:23.369Z,15.20
2024-02-19T01:09:25.523Z,15.90
2024-02-19T01:11:27.632Z,18.38
2024-02-19T01:13:31.794Z,17.23
2024-02-19T01:15:34.068Z,18.30
2024-02-19T01:17:36.371Z,18.15
2024-02-19T01:19:40.099Z,18.58
2024-02-19T01:21:42.840Z,25.15
2024-02-19T01:23:45.275Z,20.67
2024-02-19T01:25:47.263Z,14.80
2024-02-19T01:27:49.283Z,19.88
2024-02-19T01:29:52.653Z,16.58
2024-02-19T01:31:54.653Z,17.95
2024-02-19T01:33:57.141Z,15.85
2024-02-19T01:35:59.202Z,20.90
2024-02-19T01:38:01.251Z,24.75
2024-02-19T01:40:09.097Z,15.65
2024-02-19T01:42:11.545Z,13.52
2024-02-19T01:44:13.605Z,15.85
2024-02-19T01:46:17.407Z,17.60
2024-02-19T01:48:20.052Z,16.20
2024-02-19T01:50:22.779Z,15.10
2024-02-19T01:52:25.653Z,17.52
2024-02-19T01:54:27.942Z,14.40
2024-02-19T01:56:30.101Z,20.05
2024-02-19T01:58:32.638Z,17.85
2024-02-19T02:00:34.728Z,14.32
2024-02-19T02:02:38.390Z,15.98
2024-02-19T02:04:41.941Z,15.48
2024-02-19T02:06:45.130Z,22.48
2024-02-19T02:08:47.429Z,17.13
2024-02-19T02:10:49.485Z,20.27
2024-02-19T02:12:51.688Z,17.17
2024-02-19T02:14:54.039Z,17.15
2024-02-19T02:16:56.152Z,14.48
2024-02-19T02:19:00.011Z,18.45
2024-02-19T02:21:02.549Z,14.27
2024-02-19T02:23:05.058Z,14.27
2024-02-19T02:25:07.804Z,18.55
2024-02-19T02:27:11.243Z,12.68
2024-02-19T02:29:13.263Z,14.30
2024-02-19T02:31:15.463Z,9.30
2024-02-19T02:33:17.724Z,12.05
2024-02-19T02:35:19.721Z,18.77
2024-02-19T02:37:21.848Z,13.65
2024-02-19T02:39:23.964Z,15.20
2024-02-19T02:41:25.948Z,15.82
2024-02-19T02:43:29.727Z,16.95
2024-02-19T02:45:31.780Z,16.98
2024-02-19T02:47:34.290Z,12.13
2024-02-19T02:49:36.378Z,14.95
2024-02-19T02:51:38.439Z,16.60
2024-02-19T02:53:40.433Z,16.67
2024-02-19T02:55:43.380Z,19.30
2024-02-19T02:57:45.435Z,21.38
2024-02-19T02:59:49.009Z,18.95
2024-02-19T03:01:51.434Z,18.23
2024-02-19T03:03:53.740Z,19.13
2024-02-19T03:05:59.218Z,14.02
2024-02-19T03:08:01.332Z,18.27
2024-02-19T03:10:04.072Z,15.40
2024-02-19T03:12:07.054Z,20.00
2024-02-19T03:14:10.997Z,18.75
2024-02-19T03:16:17.732Z,17.83
2024-02-19T03:18:19.848Z,21.92
2024-02-19T03:20:24.592Z,17.05
2024-02-19T03:22:27.039Z,20.13
2024-02-19T03:24:29.128Z,21.30
2024-02-19T03:26:37.819Z,16.83
2024-02-19T03:28:43.761Z,20.42
2024-02-19T03:30:46.188Z,19.23
2024-02-19T03:32:49.682Z,19.20
2024-02-19T03:34:52.142Z,19.02
2024-02-19T03:36:54.445Z,17.40
2024-02-19T03:38:56.615Z,28.95
2024-02-19T03:40:58.657Z,22.52
2024-02-19T03:43:00.909Z,18.85
2024-02-19T03:45:03.499Z,18.45
2024-02-19T03:47:05.632Z,18.75
2024-02-19T03:49:09.223Z,20.50
2024-02-19T03:51:11.361Z,25.50
2024-02-19T03:53:14.455Z,21.23
2024-02-19T03:55:16.863Z,22.75
2024-02-19T03:57:19.155Z,25.55
2024-02-19T03:59:23.626Z,19.88
2024-02-19T04:01:25.774Z,17.00
2024-02-19T04:03:27.840Z,17.90
2024-02-19T04:05:31.557Z,17.02
2024-02-19T04:07:33.707Z,20.60
2024-02-19T04:11:43.770Z,21.00
2024-02-19T04:13:45.967Z,19.98
2024-02-19T04:15:48.058Z,23.92
2024-02-19T04:17:51.320Z,21.08
2024-02-19T04:19:58.318Z,27.40
2024-02-19T04:22:01.702Z,22.73
2024-02-19T04:24:04.060Z,17.42
2024-02-19T04:26:06.423Z,18.10
2024-02-19T04:28:08.506Z,24.38
2024-02-19T04:30:11.089Z,20.95
2024-02-19T04:32:13.130Z,20.63
2024-02-19T04:34:15.579Z,24.73
2024-02-19T04:36:17.693Z,24.35
2024-02-19T04:38:21.263Z,25.35
2024-02-19T04:40:23.374Z,31.52
2024-02-19T04:42:25.371Z,23.08
2024-02-19T04:44:27.389Z,32.72
2024-02-19T04:46:29.519Z,23.88
2024-02-19T04:48:35.458Z,30.45
2024-02-19T04:50:37.738Z,26.60
2024-02-19T04:52:39.742Z,25.00
2024-02-19T04:54:43.537Z,26.92
2024-02-19T04:56:47.134Z,28.77
2024-02-19T04:58:49.840Z,24.38
2024-02-19T05:00:51.903Z,29.58
2024-02-19T05:02:54.472Z,27.67
2024-02-19T05:04:56.708Z,26.90
2024-02-19T05:06:58.892Z,27.88
2024-02-19T05:09:00.860Z,26.45
2024-02-19T05:11:05.746Z,19.80
2024-02-19T05:15:11.115Z,30.13
2024-02-19T05:17:13.072Z,24.15
2024-02-19T05:19:15.250Z,28.13
2024-02-19T05:21:17.314Z,24.10
2024-02-19T05:23:21.857Z,27.15
2024-02-19T05:25:24.064Z,20.67
2024-02-19T05:27:27.472Z,23.63
2024-02-19T05:29:29.472Z,32.97
2024-02-19T05:31:33.817Z,20.60
2024-02-19T05:33:35.807Z,26.48
2024-02-19T05:35:37.858Z,28.73
2024-02-19T05:37:40.301Z,18.35
2024-02-19T05:39:42.821Z,23.65
2024-02-19T05:41:44.995Z,26.17
2024-02-19T05:43:48.651Z,22.17
2024-02-19T05:45:50.628Z,22.00
2024-02-19T05:47:52.833Z,19.92
2024-02-19T05:49:55.098Z,25.00
2024-02-19T05:51:57.633Z,22.48
2024-02-19T05:53:59.652Z,26.73
2024-02-19T05:56:01.857Z,22.75
2024-02-19T05:58:04.155Z,24.65
2024-02-19T06:00:14.819Z,22.55
2024-02-19T06:02:17.327Z,19.48
2024-02-19T06:04:19.502Z,21.85
2024-02-19T06:06:21.762Z,23.48
2024-02-19T06:08:23.882Z,23.98
2024-02-19T06:10:25.995Z,25.70
2024-02-19T06:12:28.028Z,23.30
2024-02-19T06:14:31.712Z,31.92
2024-02-19T06:16:35.012Z,25.45
2024-02-19T06:18:37.223Z,19.38
2024-02-19T06:20:40.208Z,20.55
2024-02-19T06:22:42.387Z,22.25
2024-02-19T06:24:45.850Z,24.25
2024-02-19T06:26:47.858Z,21.88
2024-02-19T06:28:49.885Z,24.50
2024-02-19T06:30:51.943Z,19.63
2024-02-19T06:32:55.364Z,19.77
2024-02-19T06:34:57.515Z,30.13
2024-02-19T06:36:59.592Z,24.02
2024-02-19T06:39:03.013Z,24.75
2024-02-19T06:41:04.998Z,25.02
2024-02-19T06:43:06.997Z,29.52
2024-02-19T06:45:09.734Z,34.33
2024-02-19T06:47:14.613Z,34.60
2024-02-19T06:51:20.784Z,23.85
2024-02-19T06:53:22.679Z,28.80
2024-02-19T06:55:24.823Z,30.08
2024-02-19T06:57:26.869Z,23.23
2024-02-19T06:59:31.367Z,26.52
2024-02-19T07:01:33.593Z,23.35
2024-02-19T07:03:35.738Z,21.33
2024-02-19T07:05:39.131Z,23.20
2024-02-19T07:07:41.489Z,23.35
2024-02-19T07:09:43.572Z,26.05
2024-02-19T07:11:45.546Z,25.77
2024-02-19T07:13:50.305Z,30.80
2024-02-19T07:15:52.502Z,22.45
2024-02-19T07:17:54.607Z,30.73
2024-02-19T07:19:57.508Z,25.70
2024-02-19T07:22:01.289Z,18.95
2024-02-19T07:24:03.738Z,26.75
2024-02-19T07:26:06.369Z,31.85
2024-02-19T07:28:08.577Z,22.70
2024-02-19T07:30:13.429Z,24.50
2024-02-19T07:32:15.902Z,24.33
2024-02-19T07:34:17.957Z,24.65
2024-02-19T07:36:20.132Z,27.48
2024-02-19T07:38:23.777Z,23.20
2024-02-19T07:40:25.807Z,24.33
2024-02-19T07:42:28.376Z,21.83
2024-02-19T07:44:30.737Z,27.02
2024-02-19T07:46:33.217Z,27.63
2024-02-19T07:48:35.456Z,23.75
2024-02-19T07:50:37.627Z,22.35
2024-02-19T07:52:39.799Z,18.55
2024-02-19T07:54:43.241Z,22.05
2024-02-19T07:56:45.369Z,28.25
2024-02-19T07:58:47.337Z,27.33
2024-02-19T08:00:49.507Z,21.40
2024-02-19T08:02:51.575Z,25.38
2024-02-19T08:04:53.850Z,25.58
2024-02-19T08:06:59.599Z,22.85
2024-02-19T08:09:05.921Z,22.83
2024-02-19T08:11:09.312Z,22.98
2024-02-19T08:13:11.565Z,17.30
2024-02-19T08:15:14.063Z,20.52
2024-02-19T08:17:16.211Z,17.25
2024-02-19T08:19:18.698Z,21.85
2024-02-19T08:21:22.410Z,15.27
2024-02-19T08:23:24.748Z,19.40
2024-02-19T08:25:27.115Z,20.20
2024-02-19T08:27:30.507Z,22.77
2024-02-19T08:29:32.688Z,19.25
2024-02-19T08:31:34.827Z,18.00
2024-02-19T08:33:37.093Z,19.25
2024-02-19T08:35:39.590Z,13.93
2024-02-19T08:37:43.167Z,13.20
2024-02-19T08:39:46.999Z,16.92
2024-02-19T08:41:49.358Z,13.43
2024-02-19T08:43:52.794Z,14.00
2024-02-19T08:45:54.977Z,14.75
2024-02-19T08:47:57.116Z,14.27
2024-02-19T08:56:21.138Z,18.88
2024-02-19T08:58:23.295Z,12.15
2024-02-19T09:00:26.705Z,13.07
2024-02-19T09:02:28.786Z,16.02
2024-02-19T09:04:31.080Z,15.85
2024-02-19T09:06:33.160Z,12.27
2024-02-19T09:08:35.480Z,10.52
2024-02-19T09:10:37.762Z,11.32
2024-02-19T09:12:39.914Z,14.00
2024-02-19T09:14:42.115Z,12.23
2024-02-19T09:16:45.614Z,19.13
2024-02-19T09:18:49.543Z,15.65
2024-02-19T09:20:52.955Z,12.03
2024-02-19T09:22:55.012Z,15.52
2024-02-19T09:24:57.261Z,12.02
2024-02-19T09:26:59.388Z,11.15
2024-02-19T09:29:01.412Z,15.15
2024-02-19T09:31:04.026Z,13.70
2024-02-19T09:33:07.657Z,11.82
2024-02-19T09:35:10.127Z,12.18
2024-02-19T09:37:12.364Z,11.23
2024-02-19T09:39:14.519Z,9.38
2024-02-19T09:41:16.530Z,9.05
2024-02-19T09:43:18.925Z,14.80
2024-02-19T09:45:21.277Z,7.90
2024-02-19T09:47:23.677Z,8.98
2024-02-19T09:49:29.600Z,8.15
2024-02-19T09:51:40.879Z,9.65
2024-02-19T09:53:44.200Z,8.07
2024-02-19T09:55:46.604Z,7.28
2024-02-19T09:57:48.631Z,11.02
2024-02-19T09:59:51.068Z,7.18
2024-02-19T10:01:53.308Z,8.52
2024-02-19T10:03:56.423Z,8.80
2024-02-19T10:06:00.028Z,6.97
2024-02-19T10:08:05.822Z,8.88
2024-02-19T10:10:11.177Z,8.05
2024-02-19T10:12:13.242Z,7.95
2024-02-19T10:14:16.006Z,7.95
2024-02-19T10:16:18.120Z,7.22
2024-02-19T10:18:21.487Z,6.80
2024-02-19T10:20:23.565Z,6.35
2024-02-19T10:22:27.212Z,9.90
2024-02-19T10:24:29.261Z,5.97
2024-02-19T10:26:31.781Z,11.27
2024-02-19T10:28:35.615Z,12.82
2024-02-19T10:30:37.718Z,9.88
2024-02-19T10:32:42.231Z,7.65
2024-02-19T10:34:44.357Z,10.80
2024-02-19T10:36:50.738Z,10.10
2024-02-19T10:38:54.628Z,7.28
2024-02-19T10:40:56.989Z,9.65
2024-02-19T10:43:01.167Z,9.65
2024-02-19T10:45:04.136Z,10.00
2024-02-19T10:47:08.335Z,14.35
2024-02-19T10:49:10.797Z,7.00
2024-02-19T10:51:14.031Z,8.75
2024-02-19T10:53:18.687Z,6.43
2024-02-19T10:55:32.603Z,9.85
2024-02-19T10:57:48.953Z,9.20
2024-02-19T11:00:06.154Z,10.75
2024-02-19T11:02:10.729Z,11.45
2024-02-19T11:04:19.521Z,13.40
2024-02-19T11:06:25.145Z,7.45
2024-02-19T11:08:32.587Z,9.88
2024-02-19T11:10:41.760Z,6.70
2024-02-19T11:12:44.008Z,8.98
2024-02-19T11:14:46.954Z,9.20
2024-02-19T11:16:49.311Z,6.50
2024-02-19T11:18:55.648Z,8.15
2024-02-19T11:21:05.272Z,5.55
2024-02-19T11:23:07.362Z,4.55
2024-02-19T11:25:11.932Z,5.65
2024-02-19T11:27:15.451Z,3.35
2024-02-19T11:29:23.486Z,6.65
2024-02-19T11:31:29.399Z,6.53
2024-02-19T11:33:31.571Z,6.72
2024-02-19T11:35:36.702Z,4.47
2024-02-19T11:37:39.120Z,4.57
2024-02-19T11:39:43.803Z,5.90
2024-02-19T11:43:49.668Z,4.28
2024-02-19T11:45:54.869Z,5.53
2024-02-19T11:47:57.356Z,4.53
2024-02-19T11:49:59.630Z,3.80
2024-02-19T11:52:08.307Z,2.90
2024-02-19T11:54:16.606Z,3.80
2024-02-19T11:56:21.031Z,7.93
2024-02-19T11:58:28.596Z,3.70
2024-02-19T12:00:32.872Z,2.08
2024-02-19T12:02:43.216Z,4.32
2024-02-19T12:04:51.846Z,4.50
2024-02-19T12:06:55.029Z,6.68
2024-02-19T12:08:57.204Z,5.50
2024-02-19T12:10:59.781Z,7.13
2024-02-19T12:13:01.987Z,4.68
2024-02-19T12:15:04.939Z,7.45
2024-02-19T12:17:08.655Z,9.70
2024-02-19T12:19:11.890Z,7.25
2024-02-19T12:21:14.031Z,7.57
2024-02-19T12:23:16.055Z,9.25
2024-02-19T12:25:18.404Z,7.60
2024-02-19T12:27:20.777Z,12.50
2024-02-19T12:29:22.966Z,9.88
2024-02-19T12:31:25.013Z,9.98
2024-02-19T12:33:28.809Z,11.32
2024-02-19T12:35:31.266Z,8.05
2024-02-19T12:37:33.490Z,10.15
2024-02-19T12:39:35.518Z,10.48
2024-02-19T12:41:37.887Z,12.15
2024-02-19T12:43:40.097Z,14.00
2024-02-19T12:45:42.125Z,12.50
2024-02-19T12:47:44.314Z,15.07
2024-02-19T12:49:48.073Z,11.85
2024-02-19T12:51:52.250Z,10.50
2024-02-19T12:53:54.784Z,16.02
2024-02-19T12:55:57.088Z,13.02
2024-02-19T12:57:59.199Z,9.70
2024-02-19T13:00:02.245Z,13.40
2024-02-19T13:02:05.633Z,17.75
2024-02-19T13:04:07.799Z,13.98
2024-02-19T13:06:15.676Z,10.00
2024-02-19T13:08:18.644Z,12.90
2024-02-19T13:10:20.753Z,12.30
2024-02-19T13:12:22.882Z,15.75
2024-02-19T13:14:26.043Z,12.52
2024-02-19T13:16:28.881Z,13.20
2024-02-19T13:18:31.734Z,13.20
2024-02-19T13:20:33.894Z,9.68
2024-02-19T13:22:37.359Z,19.05
2024-02-19T13:24:41.937Z,13.40
2024-02-19T13:26:44.130Z,17.88
2024-02-19T13:28:46.172Z,14.38
2024-02-19T13:30:48.242Z,14.48
2024-02-19T13:32:50.853Z,17.10
2024-02-19T13:34:54.025Z,15.60
2024-02-19T13:36:56.418Z,15.15
2024-02-19T13:38:59.851Z,16.55
2024-02-19T13:41:05.492Z,14.95
2024-02-19T13:43:08.656Z,18.30
2024-02-19T13:45:11.477Z,15.00
2024-02-19T13:47:14.199Z,13.27
2024-02-19T13:49:16.332Z,21.63
2024-02-19T13:51:18.566Z,17.58
2024-02-19T13:53:20.869Z,19.17
2024-02-19T13:55:24.333Z,17.65
2024-02-19T13:57:26.736Z,16.65
2024-02-19T13:59:32.866Z,17.77
2024-02-19T14:01:38.698Z,17.83
2024-02-19T14:03:42.688Z,15.80
2024-02-19T14:05:45.681Z,18.25
2024-02-19T14:07:49.065Z,19.58
2024-02-19T14:09:51.472Z,16.60
2024-02-19T14:11:54.956Z,14.43
2024-02-19T14:14:02.114Z,16.25
2024-02-19T14:16:06.148Z,15.23
2024-02-19T14:18:08.296Z,13.23
2024-02-19T14:20:11.919Z,15.50
2024-02-19T14:22:14.143Z,15.95
2024-02-19T14:24:17.659Z,18.17
2024-02-19T14:26:21.709Z,11.77
2024-02-19T14:28:25.215Z,22.40
2024-02-19T14:30:27.500Z,13.52
2024-02-19T14:32:29.844Z,17.92
2024-02-19T14:34:33.981Z,14.93
2024-02-19T14:36:36.681Z,14.43
2024-02-19T14:38:39.114Z,14.73
2024-02-19T14:40:41.691Z,13.90
2024-02-19T14:42:45.563Z,10.98
2024-02-19T14:44:49.001Z,10.93
2024-02-19T14:46:55.023Z,12.32
2024-02-19T14:49:05.753Z,16.85
2024-02-19T14:51:07.967Z,13.70
2024-02-19T14:53:09.979Z,14.55
2024-02-19T14:55:13.806Z,13.20
2024-02-19T14:57:16.143Z,9.40
2024-02-19T14:59:18.299Z,13.02
2024-02-19T15:01:22.461Z,12.13
2024-02-19T15:03:25.574Z,11.43
2024-02-19T15:05:28.812Z,11.77
2024-02-19T15:07:31.409Z,13.32
2024-02-19T15:09:33.502Z,18.88
2024-02-19T15:11:35.568Z,16.40
2024-02-19T15:13:37.604Z,19.75
2024-02-19T15:15:40.085Z,16.50
2024-02-19T15:17:43.628Z,16.08
2024-02-19T15:19:46.294Z,11.70
2024-02-19T15:21:48.390Z,16.52
2024-02-19T15:23:50.629Z,14.75
2024-02-19T15:25:53.133Z,14.75
2024-02-19T15:27:55.384Z,19.45
2024-02-19T15:30:00.601Z,10.00
2024-02-19T15:32:03.180Z,11.70
2024-02-19T15:34:06.754Z,11.60
2024-02-19T15:36:11.479Z,9.50
2024-02-19T15:38:14.026Z,12.95
2024-02-19T15:40:16.803Z,10.75
2024-02-19T15:42:18.884Z,12.85
2024-02-19T15:44:20.879Z,17.70
2024-02-19T15:46:22.903Z,14.30
2024-02-19T15:48:25.000Z,16.65
2024-02-19T15:50:28.481Z,11.40
2024-02-19T15:52:30.964Z,12.18
2024-02-19T15:54:34.461Z,102.88
2024-02-19T15:56:38.217Z,16.50
2024-02-19T15:58:40.386Z,22.02
2024-02-19T16:00:44.403Z,9.70
2024-02-19T16:02:46.446Z,10.47
2024-02-19T16:04:49.631Z,21.13
2024-02-19T16:06:53.440Z,15.70
2024-02-19T16:08:56.802Z,61.75
2024-02-19T16:11:02.705Z,37.92
2024-02-19T16:13:04.980Z,31.65
2024-02-19T16:15:08.260Z,46.92
2024-02-19T16:17:11.184Z,42.55
2024-02-19T16:19:14.929Z,40.40
2024-02-19T16:21:17.309Z,7.68
2024-02-19T16:23:20.784Z,9.13
2024-02-19T16:25:24.083Z,30.08
2024-02-19T16:27:26.177Z,15.48
2024-02-19T16:29:29.965Z,17.05
2024-02-19T16:31:33.072Z,15.02
2024-02-19T16:33:35.673Z,20.58
2024-02-19T16:35:38.222Z,11.45
2024-02-19T16:37:41.215Z,13.20
2024-02-19T16:39:49.178Z,14.70
2024-02-19T16:41:51.968Z,14.52
2024-02-19T16:43:54.430Z,11.77
2024-02-19T16:45:56.567Z,14.00
2024-02-19T16:47:58.782Z,13.27
2024-02-19T16:50:01.152Z,16.02
2024-02-19T16:52:03.663Z,14.98
2024-02-19T16:54:05.904Z,19.15
2024-02-19T16:56:12.004Z,10.18
2024-02-19T16:58:16.678Z,12.48
2024-02-19T17:00:21.212Z,11.63
2024-02-19T17:02:23.325Z,14.45
2024-02-19T17:04:25.928Z,11.02
2024-02-19T17:06:28.125Z,12.93
2024-02-19T17:08:30.640Z,10.70
2024-02-19T17:10:32.958Z,12.10
2024-02-19T17:12:36.348Z,11.30
2024-02-19T17:14:41.593Z,15.93
2024-02-19T17:16:50.240Z,12.93
2024-02-19T17:18:52.438Z,15.40
2024-02-19T17:20:54.415Z,12.75
2024-02-19T17:22:56.827Z,9.50
2024-02-19T17:24:59.096Z,12.20
2024-02-19T17:27:02.830Z,11.20
2024-02-19T17:29:06.610Z,10.90
2024-02-19T17:31:09.537Z,15.90
2024-02-19T17:33:11.698Z,14.48
2024-02-19T17:35:14.599Z,15.27
2024-02-19T17:37:18.067Z,13.35
2024-02-19T17:39:24.679Z,13.40
2024-02-19T17:41:26.709Z,9.73
2024-02-19T17:43:28.938Z,9.10
2024-02-19T17:45:32.429Z,11.40
2024-02-19T17:47:34.561Z,13.50
2024-02-19T17:49:36.744Z,10.30
2024-02-19T17:51:38.904Z,7.75
2024-02-19T17:53:44.068Z,9.80
2024-02-19T17:55:47.015Z,10.80
2024-02-19T17:57:49.536Z,11.32
2024-02-19T17:59:51.650Z,9.95
2024-02-19T18:01:56.598Z,19.48
2024-02-19T18:03:58.680Z,11.82
2024-02-19T18:06:00.895Z,18.92
2024-02-19T18:08:03.215Z,22.60
2024-02-19T18:10:05.984Z,17.42
2024-02-19T18:12:08.073Z,12.73
2024-02-19T18:14:10.314Z,14.70
2024-02-19T18:16:12.377Z,11.88
2024-02-19T18:18:16.925Z,25.63
2024-02-19T18:20:19.606Z,13.70
2024-02-19T18:22:24.898Z,12.75
2024-02-19T18:24:27.698Z,6.00
2024-02-19T18:26:30.180Z,8.50
2024-02-19T18:28:35.877Z,2.67
2024-02-19T18:30:38.020Z,4.18
2024-02-19T18:32:41.795Z,3.50
2024-02-19T18:34:47.515Z,7.30
2024-02-19T18:36:55.356Z,7.63
2024-02-19T18:38:57.719Z,8.30
2024-02-19T18:40:59.974Z,5.68
2024-02-19T18:43:02.015Z,3.78
2024-02-19T18:45:04.739Z,1.65
2024-02-19T18:47:07.973Z,6.95
2024-02-19T18:49:10.042Z,8.40
2024-02-19T18:51:16.348Z,3.90
2024-02-19T18:53:18.300Z,4.97
2024-02-19T18:55:24.018Z,2.85
2024-02-19T18:57:26.305Z,7.20
2024-02-19T18:59:31.626Z,6.18
2024-02-19T19:01:33.774Z,6.22
2024-02-19T19:03:35.949Z,4.82
2024-02-19T19:05:40.546Z,4.15
2024-02-19T19:07:43.950Z,3.40
2024-02-19T19:09:48.105Z,7.75
2024-02-19T19:11:50.084Z,7.53
2024-02-19T19:13:52.354Z,3.40
2024-02-19T19:15:54.690Z,6.65
2024-02-19T19:17:56.884Z,2.45
2024-02-19T19:19:59.194Z,3.65
2024-02-19T19:22:03.693Z,1.00
2024-02-19T19:24:08.094Z,1.98
2024-02-19T19:26:10.152Z,2.40
2024-02-19T19:28:14.548Z,1.20
2024-02-19T19:30:17.174Z,1.75
2024-02-19T19:32:25.937Z,2.90
2024-02-19T19:34:28.135Z,0.98
2024-02-19T19:36:30.390Z,1.23
2024-02-19T19:38:32.738Z,3.72
2024-02-19T19:40:36.178Z,1.20
2024-02-19T19:42:40.001Z,2.35
2024-02-19T19:44:42.359Z,1.23
2024-02-19T19:46:45.164Z,1.60
2024-02-19T19:48:47.716Z,1.23
2024-02-19T19:50:49.847Z,1.10
2024-02-19T19:52:51.854Z,2.20
2024-02-19T19:54:54.651Z,3.30
2024-02-19T19:56:59.458Z,1.38
2024-02-19T19:59:01.735Z,4.15
2024-02-19T20:01:05.463Z,0.57
2024-02-19T20:03:09.269Z,1.90
2024-02-19T20:05:12.518Z,1.95
2024-02-19T20:07:14.749Z,2.78
2024-02-19T20:09:16.934Z,2.00
2024-02-19T20:11:19.506Z,2.42
2024-02-19T20:13:23.654Z,1.85
2024-02-19T20:15:25.898Z,0.43
2024-02-19T20:17:29.453Z,2.28
2024-02-19T20:19:31.948Z,1.40
2024-02-19T20:21:33.942Z,3.75
2024-02-19T20:23:40.186Z,3.63
2024-02-19T20:25:42.348Z,2.10
2024-02-19T20:27:44.456Z,3.55
2024-02-19T20:29:47.870Z,0.50
2024-02-19T20:31:50.904Z,0.55
2024-02-19T20:33:53.774Z,1.10
2024-02-19T20:35:58.229Z,1.40
2024-02-19T20:38:00.273Z,1.67
2024-02-19T20:40:05.420Z,2.35
2024-02-19T20:42:07.678Z,3.95
2024-02-19T20:44:09.925Z,0.98
2024-02-19T20:46:13.609Z,5.20
2024-02-19T20:48:15.847Z,2.60
2024-02-19T20:50:17.971Z,2.25
2024-02-19T20:52:20.080Z,0.60
2024-02-19T20:54:22.254Z,2.78
2024-02-19T20:56:24.314Z,1.45
2024-02-19T20:58:27.370Z,1.50
2024-02-19T21:00:29.426Z,3.17
2024-02-19T21:02:33.313Z,1.58
2024-02-19T21:04:36.324Z,2.10
2024-02-19T21:06:39.118Z,1.15
2024-02-19T21:08:41.276Z,1.73
2024-02-19T21:10:43.949Z,2.13
2024-02-19T21:12:46.417Z,1.88
2024-02-19T21:14:49.910Z,1.98
2024-02-19T21:16:51.851Z,2.05
2024-02-19T21:18:55.556Z,1.45
2024-02-19T21:20:57.592Z,1.65
2024-02-19T21:22:59.743Z,1.38
2024-02-19T21:25:02.492Z,4.00
2024-02-19T21:27:05.331Z,3.08
2024-02-19T21:29:08.014Z,0.80
2024-02-19T21:31:10.143Z,3.85
2024-02-19T21:33:12.341Z,2.65
2024-02-19T21:35:18.457Z,2.03
2024-02-19T21:37:20.717Z,1.15
2024-02-19T21:39:22.699Z,1.98
2024-02-19T21:41:24.797Z,3.45
2024-02-19T21:43:27.275Z,3.97
2024-02-19T21:45:29.503Z,3.20
2024-02-19T21:47:31.946Z,4.32
2024-02-19T21:49:34.058Z,1.80
2024-02-19T21:51:40.640Z,1.52
2024-02-19T21:53:42.727Z,3.60
2024-02-19T21:55:44.742Z,4.78
2024-02-19T21:57:47.590Z,1.30
2024-02-19T21:59:54.050Z,4.40
2024-02-19T22:01:56.304Z,3.42
2024-02-19T22:03:58.539Z,2.72
2024-02-19T22:06:01.256Z,2.22
2024-02-19T22:08:05.474Z,1.00
2024-02-19T22:10:09.980Z,2.92
2024-02-19T22:12:11.988Z,2.03
2024-02-19T22:14:16.066Z,3.92
2024-02-19T22:16:18.179Z,4.30
2024-02-19T22:18:20.424Z,1.98
2024-02-19T22:20:22.504Z,0.82
2024-02-19T22:22:25.002Z,5.03
2024-02-19T22:24:28.416Z,1.90
2024-02-19T22:26:30.458Z,0.90
2024-02-19T22:28:32.591Z,2.47
2024-02-19T22:30:35.818Z,1.35
2024-02-19T22:32:39.255Z,2.92
2024-02-19T22:34:45.813Z,2.00
2024-02-19T22:36:48.176Z,1.63
2024-02-19T22:38:50.270Z,1.60
2024-02-19T22:40:53.964Z,2.15
2024-02-19T22:42:57.799Z,1.02
2024-02-19T22:45:00.841Z,5.90
2024-02-19T22:47:02.835Z,3.47
2024-02-19T22:49:04.905Z,1.58
2024-02-19T22:51:08.421Z,1.50
2024-02-19T22:53:10.512Z,2.20
2024-02-19T22:55:12.481Z,3.63
2024-02-19T22:57:21.817Z,3.08
2024-02-19T22:59:25.554Z,1.40
2024-02-19T23:01:28.219Z,1.30
2024-02-19T23:03:30.444Z,2.33
2024-02-19T23:05:33.399Z,4.43
2024-02-19T23:07:35.723Z,2.08
2024-02-19T23:09:37.991Z,3.53
2024-02-19T23:11:40.017Z,8.77
2024-02-19T23:13:43.451Z,1.88
2024-02-19T23:15:45.418Z,3.40
2024-02-19T23:17:47.472Z,2.38
2024-02-19T23:19:49.486Z,1.17
2024-02-19T23:21:51.569Z,5.70
2024-02-19T23:23:53.641Z,2.05
2024-02-19T23:25:56.161Z,2.22
2024-02-19T23:27:59.215Z,6.75
2024-02-19T23:30:02.994Z,3.90
2024-02-19T23:32:05.526Z,1.23
2024-02-19T23:34:08.018Z,1.58
2024-02-19T23:36:10.191Z,1.35
2024-02-19T23:38:13.879Z,5.65
2024-02-19T23:40:19.848Z,1.98
2024-02-19T23:42:21.989Z,4.50
2024-02-19T23:44:24.130Z,2.92
2024-02-19T23:46:28.653Z,2.20
2024-02-19T23:48:33.292Z,2.40
2024-02-19T23:50:35.370Z,1.45
2024-02-19T23:52:38.496Z,4.45
2024-02-19T23:54:41.490Z,3.70
2024-02-19T23:56:43.909Z,3.17
2024-02-19T23:58:45.878Z,4.30
